sensor_id;sensor_type;location;lat;lon;timestamp;pressure;altitude;pressure_sealevel;temperature;humidity
21863;BME280;11096;51.338;12.524;2023-07-16T00:00:46;99781.88;;;22.01;92.10
21863;BME280;11096;51.338;12.524;2023-07-16T00:03:11;99815.97;;;21.75;98.43
21863;BME280;11096;51.338;12.524;2023-07-16T00:05:39;99804.78;;;22.31;91.88
21863;BME280;11096;51.338;12.524;2023-07-16T00:08:04;99875.38;;;21.57;100.00
21863;BME280;11096;51.338;12.524;2023-07-16T00:10:34;99828.25;;;21.61;100.00
21863;BME280;11096;51.338;12.524;2023-07-16T00:13:00;99833.50;;;21.16;100.00
21863;BME280;11096;51.338;12.524;2023-07-16T00:15:25;99821.59;;;21.20;100.00
21863;BME280;11096;51.338;12.524;2023-07-16T00:17:50;99823.84;;;21.09;100.00
21863;BME280;11096;51.338;12.524;2023-07-16T00:20:16;99833.84;;;20.46;100.00
21863;BME280;11096;51.338;12.524;2023-07-16T00:22:41;99852.44;;;20.29;100.00
21863;BME280;11096;51.338;12.524;2023-07-16T00:25:07;99841.38;;;22.48;100.00
21863;BME280;11096;51.338;12.524;2023-07-16T00:27:32;99817.09;;;22.02;100.00
21863;BME280;11096;51.338;12.524;2023-07-16T00:29:58;99818.56;;;21.38;100.00
21863;BME280;11096;51.338;12.524;2023-07-16T00:32:23;99814.91;;;21.69;100.00
21863;BME280;11096;51.338;12.524;2023-07-16T00:34:48;99798.34;;;21.82;100.00
21863;BME280;11096;51.338;12.524;2023-07-16T00:37:14;99784.56;;;21.86;100.00
21863;BME280;11096;51.338;12.524;2023-07-16T00:39:39;99773.72;;;21.60;100.00
21863;BME280;11096;51.338;12.524;2023-07-16T00:42:05;99759.66;;;21.96;100.00
21863;BME280;11096;51.338;12.524;2023-07-16T00:44:30;99735.75;;;21.89;100.00
21863;BME280;11096;51.338;12.524;2023-07-16T00:46:56;99709.31;;;22.11;100.00
21863;BME280;11096;51.338;12.524;2023-07-16T00:49:22;99687.16;;;22.18;100.00
21863;BME280;11096;51.338;12.524;2023-07-16T00:51:49;99702.88;;;21.98;100.00
21863;BME280;11096;51.338;12.524;2023-07-16T00:54:16;99685.09;;;22.14;100.00
21863;BME280;11096;51.338;12.524;2023-07-16T00:56:41;99695.03;;;22.12;100.00
21863;BME280;11096;51.338;12.524;2023-07-16T00:59:06;99682.38;;;22.28;100.00
21863;BME280;11096;51.338;12.524;2023-07-16T01:01:32;99687.97;;;22.19;100.00
21863;BME280;11096;51.338;12.524;2023-07-16T01:03:57;99700.97;;;22.14;100.00
21863;BME280;11096;51.338;12.524;2023-07-16T01:06:39;99695.69;;;22.14;100.00
21863;BME280;11096;51.338;12.524;2023-07-16T01:09:17;99689.56;;;22.13;100.00
21863;BME280;11096;51.338;12.524;2023-07-16T01:11:43;99685.47;;;22.11;100.00
21863;BME280;11096;51.338;12.524;2023-07-16T01:14:09;99694.81;;;22.06;100.00
21863;BME280;11096;51.338;12.524;2023-07-16T01:16:36;99690.53;;;21.62;100.00
21863;BME280;11096;51.338;12.524;2023-07-16T01:19:02;99702.25;;;21.75;100.00
21863;BME280;11096;51.338;12.524;2023-07-16T01:30:15;99691.03;;;21.94;100.00
21863;BME280;11096;51.338;12.524;2023-07-16T01:32:44;99689.53;;;21.85;100.00
21863;BME280;11096;51.338;12.524;2023-07-16T01:35:11;99692.97;;;21.85;100.00
21863;BME280;11096;51.338;12.524;2023-07-16T01:37:37;99701.59;;;22.16;100.00
21863;BME280;11096;51.338;12.524;2023-07-16T01:40:03;99703.94;;;22.25;100.00
21863;BME280;11096;51.338;12.524;2023-07-16T01:42:28;99721.56;;;22.18;100.00
21863;BME280;11096;51.338;12.524;2023-07-16T01:44:54;99719.31;;;21.94;100.00
21863;BME280;11096;51.338;12.524;2023-07-16T01:47:29;99740.56;;;22.00;100.00
21863;BME280;11096;51.338;12.524;2023-07-16T01:49:57;99747.72;;;21.63;100.00
21863;BME280;11096;51.338;12.524;2023-07-16T01:52:22;99757.84;;;21.60;100.00
21863;BME280;11096;51.338;12.524;2023-07-16T01:54:48;99755.69;;;21.49;100.00
21863;BME280;11096;51.338;12.524;2023-07-16T01:57:13;99769.09;;;21.47;100.00
21863;BME280;11096;51.338;12.524;2023-07-16T01:59:38;99773.41;;;21.70;100.00
21863;BME280;11096;51.338;12.524;2023-07-16T02:02:04;99773.00;;;21.51;100.00
21863;BME280;11096;51.338;12.524;2023-07-16T02:04:30;99771.47;;;21.42;100.00
21863;BME280;11096;51.338;12.524;2023-07-16T02:06:55;99782.94;;;21.49;100.00
21863;BME280;11096;51.338;12.524;2023-07-16T02:09:22;99788.41;;;21.33;100.00
21863;BME280;11096;51.338;12.524;2023-07-16T02:11:47;99782.44;;;21.60;100.00
21863;BME280;11096;51.338;12.524;2023-07-16T02:14:13;99782.38;;;21.69;100.00
21863;BME280;11096;51.338;12.524;2023-07-16T02:16:39;99764.47;;;21.71;100.00
21863;BME280;11096;51.338;12.524;2023-07-16T02:19:05;99759.19;;;21.92;100.00
21863;BME280;11096;51.338;12.524;2023-07-16T02:21:30;99755.91;;;21.90;100.00
21863;BME280;11096;51.338;12.524;2023-07-16T02:23:56;99763.09;;;21.96;100.00
21863;BME280;11096;51.338;12.524;2023-07-16T02:26:21;99766.88;;;21.87;100.00
21863;BME280;11096;51.338;12.524;2023-07-16T02:28:46;99770.28;;;21.81;100.00
21863;BME280;11096;51.338;12.524;2023-07-16T02:31:12;99779.50;;;21.49;100.00
21863;BME280;11096;51.338;12.524;2023-07-16T02:33:37;99789.22;;;21.33;100.00
21863;BME280;11096;51.338;12.524;2023-07-16T02:36:02;99782.59;;;21.22;100.00
21863;BME280;11096;51.338;12.524;2023-07-16T02:38:28;99781.75;;;21.37;100.00
21863;BME280;11096;51.338;12.524;2023-07-16T02:40:53;99777.38;;;21.59;100.00
21863;BME280;11096;51.338;12.524;2023-07-16T02:43:19;99775.66;;;21.51;100.00
21863;BME280;11096;51.338;12.524;2023-07-16T02:45:45;99775.19;;;21.33;100.00
21863;BME280;11096;51.338;12.524;2023-07-16T02:48:10;99772.38;;;21.49;100.00
21863;BME280;11096;51.338;12.524;2023-07-16T02:50:36;99765.91;;;21.52;100.00
21863;BME280;11096;51.338;12.524;2023-07-16T02:53:06;99775.09;;;21.11;100.00
21863;BME280;11096;51.338;12.524;2023-07-16T02:55:31;99765.19;;;21.13;100.00
21863;BME280;11096;51.338;12.524;2023-07-16T02:57:57;99760.81;;;21.20;100.00
21863;BME280;11096;51.338;12.524;2023-07-16T03:00:23;99762.53;;;21.13;100.00
21863;BME280;11096;51.338;12.524;2023-07-16T03:02:48;99781.59;;;20.94;100.00
21863;BME280;11096;51.338;12.524;2023-07-16T03:05:19;99770.56;;;20.90;100.00
21863;BME280;11096;51.338;12.524;2023-07-16T03:07:44;99753.81;;;20.98;100.00
21863;BME280;11096;51.338;12.524;2023-07-16T03:10:10;99747.16;;;21.02;100.00
21863;BME280;11096;51.338;12.524;2023-07-16T03:12:35;99735.16;;;21.36;100.00
21863;BME280;11096;51.338;12.524;2023-07-16T03:15:01;99713.06;;;21.58;100.00
21863;BME280;11096;51.338;12.524;2023-07-16T03:17:26;99713.66;;;21.75;100.00
21863;BME280;11096;51.338;12.524;2023-07-16T03:19:51;99706.09;;;21.72;100.00
21863;BME280;11096;51.338;12.524;2023-07-16T03:22:19;99708.63;;;21.59;100.00
21863;BME280;11096;51.338;12.524;2023-07-16T03:24:45;99701.31;;;21.61;100.00
21863;BME280;11096;51.338;12.524;2023-07-16T03:27:10;99692.31;;;21.55;100.00
21863;BME280;11096;51.338;12.524;2023-07-16T03:29:36;99666.63;;;21.49;100.00
21863;BME280;11096;51.338;12.524;2023-07-16T03:32:02;99675.31;;;21.64;100.00
21863;BME280;11096;51.338;12.524;2023-07-16T03:34:27;99676.59;;;21.69;100.00
21863;BME280;11096;51.338;12.524;2023-07-16T03:36:53;99662.75;;;21.73;100.00
21863;BME280;11096;51.338;12.524;2023-07-16T03:39:18;99678.78;;;21.86;100.00
21863;BME280;11096;51.338;12.524;2023-07-16T03:41:44;99669.59;;;21.61;100.00
21863;BME280;11096;51.338;12.524;2023-07-16T03:44:10;99681.28;;;21.52;100.00
21863;BME280;11096;51.338;12.524;2023-07-16T03:46:35;99701.81;;;21.71;100.00
21863;BME280;11096;51.338;12.524;2023-07-16T03:49:00;99696.59;;;21.56;100.00
21863;BME280;11096;51.338;12.524;2023-07-16T03:51:26;99681.41;;;21.29;100.00
21863;BME280;11096;51.338;12.524;2023-07-16T03:53:51;99696.66;;;21.41;100.00
21863;BME280;11096;51.338;12.524;2023-07-16T03:56:16;99696.81;;;21.40;100.00
21863;BME280;11096;51.338;12.524;2023-07-16T03:58:42;99718.41;;;21.43;100.00
21863;BME280;11096;51.338;12.524;2023-07-16T04:01:08;99737.19;;;21.70;100.00
21863;BME280;11096;51.338;12.524;2023-07-16T04:03:34;99734.22;;;21.58;100.00
21863;BME280;11096;51.338;12.524;2023-07-16T04:06:08;99742.44;;;21.63;100.00
21863;BME280;11096;51.338;12.524;2023-07-16T04:08:37;99768.25;;;21.61;100.00
21863;BME280;11096;51.338;12.524;2023-07-16T04:11:03;99788.63;;;21.68;100.00
21863;BME280;11096;51.338;12.524;2023-07-16T04:13:29;99812.34;;;21.76;100.00
21863;BME280;11096;51.338;12.524;2023-07-16T04:15:55;99811.34;;;21.77;100.00
21863;BME280;11096;51.338;12.524;2023-07-16T04:18:22;99818.81;;;21.73;100.00
21863;BME280;11096;51.338;12.524;2023-07-16T04:20:48;99828.16;;;21.25;100.00
21863;BME280;11096;51.338;12.524;2023-07-16T04:23:13;99827.50;;;21.22;100.00
21863;BME280;11096;51.338;12.524;2023-07-16T04:25:38;99833.44;;;21.25;100.00
21863;BME280;11096;51.338;12.524;2023-07-16T04:28:04;99842.56;;;21.37;100.00
21863;BME280;11096;51.338;12.524;2023-07-16T04:30:29;99835.53;;;21.29;100.00
21863;BME280;11096;51.338;12.524;2023-07-16T04:32:55;99831.97;;;21.37;100.00
21863;BME280;11096;51.338;12.524;2023-07-16T04:35:20;99847.75;;;21.45;100.00
21863;BME280;11096;51.338;12.524;2023-07-16T04:37:46;99854.31;;;21.19;100.00
21863;BME280;11096;51.338;12.524;2023-07-16T04:40:11;99855.41;;;21.55;100.00
21863;BME280;11096;51.338;12.524;2023-07-16T04:42:37;99857.41;;;21.53;100.00
21863;BME280;11096;51.338;12.524;2023-07-16T04:45:03;99865.59;;;21.73;100.00
21863;BME280;11096;51.338;12.524;2023-07-16T04:47:29;99864.81;;;21.42;100.00
21863;BME280;11096;51.338;12.524;2023-07-16T04:49:54;99862.09;;;21.87;100.00
21863;BME280;11096;51.338;12.524;2023-07-16T04:52:19;99874.16;;;21.75;100.00
21863;BME280;11096;51.338;12.524;2023-07-16T04:54:45;99868.53;;;21.63;100.00
21863;BME280;11096;51.338;12.524;2023-07-16T04:57:10;99873.06;;;21.84;100.00
21863;BME280;11096;51.338;12.524;2023-07-16T04:59:36;99873.09;;;21.69;100.00
21863;BME280;11096;51.338;12.524;2023-07-16T05:02:05;99880.72;;;21.94;100.00
21863;BME280;11096;51.338;12.524;2023-07-16T05:04:31;99896.03;;;21.98;100.00
21863;BME280;11096;51.338;12.524;2023-07-16T05:06:57;99896.50;;;21.87;100.00
21863;BME280;11096;51.338;12.524;2023-07-16T05:09:22;99898.69;;;21.98;100.00
21863;BME280;11096;51.338;12.524;2023-07-16T05:11:47;99900.41;;;21.91;100.00
21863;BME280;11096;51.338;12.524;2023-07-16T05:14:13;99898.16;;;21.88;100.00
21863;BME280;11096;51.338;12.524;2023-07-16T05:16:38;99900.59;;;21.90;100.00
21863;BME280;11096;51.338;12.524;2023-07-16T05:19:04;99909.94;;;22.22;100.00
21863;BME280;11096;51.338;12.524;2023-07-16T05:21:29;99908.81;;;22.31;100.00
21863;BME280;11096;51.338;12.524;2023-07-16T05:23:54;99914.63;;;22.41;100.00
21863;BME280;11096;51.338;12.524;2023-07-16T05:26:20;99908.22;;;22.72;100.00
21863;BME280;11096;51.338;12.524;2023-07-16T05:28:45;99899.81;;;23.18;92.36
21863;BME280;11096;51.338;12.524;2023-07-16T05:31:11;99910.25;;;22.98;89.53
21863;BME280;11096;51.338;12.524;2023-07-16T05:33:36;99898.22;;;22.74;86.56
21863;BME280;11096;51.338;12.524;2023-07-16T05:36:02;99911.50;;;23.65;83.32
21863;BME280;11096;51.338;12.524;2023-07-16T05:38:27;99898.03;;;23.67;80.86
21863;BME280;11096;51.338;12.524;2023-07-16T05:40:53;99903.34;;;23.67;80.93
21863;BME280;11096;51.338;12.524;2023-07-16T05:43:18;99898.25;;;23.30;79.26
21863;BME280;11096;51.338;12.524;2023-07-16T05:45:44;99905.19;;;23.66;78.82
21863;BME280;11096;51.338;12.524;2023-07-16T05:48:09;99914.66;;;23.75;77.18
21863;BME280;11096;51.338;12.524;2023-07-16T05:50:34;99915.75;;;23.53;76.16
21863;BME280;11096;51.338;12.524;2023-07-16T05:53:00;99917.88;;;23.08;75.55
21863;BME280;11096;51.338;12.524;2023-07-16T05:55:25;99922.84;;;23.46;74.80
21863;BME280;11096;51.338;12.524;2023-07-16T05:57:51;99928.72;;;23.13;74.83
21863;BME280;11096;51.338;12.524;2023-07-16T06:00:16;99929.00;;;22.97;75.13
21863;BME280;11096;51.338;12.524;2023-07-16T06:02:42;99925.09;;;23.49;74.90
21863;BME280;11096;51.338;12.524;2023-07-16T06:05:08;99920.25;;;23.59;74.13
21863;BME280;11096;51.338;12.524;2023-07-16T06:07:34;99918.47;;;23.66;72.95
21863;BME280;11096;51.338;12.524;2023-07-16T06:09:59;99922.38;;;23.70;72.71
21863;BME280;11096;51.338;12.524;2023-07-16T06:12:24;99932.19;;;24.25;71.04
21863;BME280;11096;51.338;12.524;2023-07-16T06:14:50;99938.41;;;24.52;71.76
21863;BME280;11096;51.338;12.524;2023-07-16T06:17:15;99941.91;;;24.72;68.47
21863;BME280;11096;51.338;12.524;2023-07-16T06:19:41;99942.00;;;24.31;67.49
21863;BME280;11096;51.338;12.524;2023-07-16T06:22:06;99940.91;;;25.06;69.04
21863;BME280;11096;51.338;12.524;2023-07-16T06:24:34;99943.75;;;24.92;66.62
21863;BME280;11096;51.338;12.524;2023-07-16T06:26:59;99930.25;;;25.20;65.93
21863;BME280;11096;51.338;12.524;2023-07-16T06:29:25;99931.44;;;24.44;66.00
21863;BME280;11096;51.338;12.524;2023-07-16T06:31:57;99934.31;;;24.56;65.08
21863;BME280;11096;51.338;12.524;2023-07-16T06:34:24;99945.41;;;25.06;64.00
21863;BME280;11096;51.338;12.524;2023-07-16T06:36:49;99935.97;;;25.10;63.08
21863;BME280;11096;51.338;12.524;2023-07-16T06:39:15;99935.78;;;25.32;62.81
21863;BME280;11096;51.338;12.524;2023-07-16T06:41:40;99935.56;;;25.06;61.79
21863;BME280;11096;51.338;12.524;2023-07-16T06:44:05;99930.25;;;25.26;63.23
21863;BME280;11096;51.338;12.524;2023-07-16T06:46:31;99940.50;;;24.76;63.10
21863;BME280;11096;51.338;12.524;2023-07-16T06:48:56;99934.63;;;25.79;60.56
21863;BME280;11096;51.338;12.524;2023-07-16T06:51:22;99935.78;;;24.92;59.96
21863;BME280;11096;51.338;12.524;2023-07-16T06:53:47;99940.69;;;25.41;60.38
21863;BME280;11096;51.338;12.524;2023-07-16T06:56:12;99937.03;;;26.01;58.08
21863;BME280;11096;51.338;12.524;2023-07-16T06:58:38;99943.00;;;26.34;57.98
21863;BME280;11096;51.338;12.524;2023-07-16T07:01:03;99954.88;;;25.94;56.94
21863;BME280;11096;51.338;12.524;2023-07-16T07:03:29;99961.84;;;25.81;57.77
21863;BME280;11096;51.338;12.524;2023-07-16T07:05:54;99966.53;;;26.44;56.45
21863;BME280;11096;51.338;12.524;2023-07-16T07:08:20;99967.13;;;26.46;54.18
21863;BME280;11096;51.338;12.524;2023-07-16T07:10:48;99976.41;;;26.75;55.02
21863;BME280;11096;51.338;12.524;2023-07-16T07:13:13;99963.22;;;26.49;55.41
21863;BME280;11096;51.338;12.524;2023-07-16T07:15:38;99957.47;;;26.52;54.50
21863;BME280;11096;51.338;12.524;2023-07-16T07:18:04;99973.78;;;27.44;54.10
21863;BME280;11096;51.338;12.524;2023-07-16T07:20:29;99968.81;;;28.70;51.74
21863;BME280;11096;51.338;12.524;2023-07-16T07:22:55;99969.31;;;27.81;53.08
21863;BME280;11096;51.338;12.524;2023-07-16T07:25:20;99974.25;;;27.41;52.48
21863;BME280;11096;51.338;12.524;2023-07-16T07:27:45;99977.03;;;26.32;53.56
21863;BME280;11096;51.338;12.524;2023-07-16T07:30:11;99969.72;;;27.16;53.60
21863;BME280;11096;51.338;12.524;2023-07-16T07:32:37;99979.13;;;26.69;53.21
21863;BME280;11096;51.338;12.524;2023-07-16T07:35:04;99970.09;;;26.31;53.37
21863;BME280;11096;51.338;12.524;2023-07-16T07:37:29;99971.16;;;26.62;54.58
21863;BME280;11096;51.338;12.524;2023-07-16T07:39:55;99964.16;;;28.65;48.16
21863;BME280;11096;51.338;12.524;2023-07-16T07:42:20;99948.25;;;29.65;43.35
21863;BME280;11096;51.338;12.524;2023-07-16T07:44:45;99958.00;;;28.65;47.20
21863;BME280;11096;51.338;12.524;2023-07-16T07:47:11;99952.44;;;27.44;48.93
21863;BME280;11096;51.338;12.524;2023-07-16T07:49:36;99954.94;;;28.01;46.53
21863;BME280;11096;51.338;12.524;2023-07-16T07:52:02;99963.31;;;27.24;48.53
21863;BME280;11096;51.338;12.524;2023-07-16T07:54:27;99958.38;;;27.28;48.00
21863;BME280;11096;51.338;12.524;2023-07-16T07:56:53;99964.03;;;28.12;45.18
21863;BME280;11096;51.338;12.524;2023-07-16T07:59:18;99964.50;;;28.09;46.29
21863;BME280;11096;51.338;12.524;2023-07-16T08:01:43;99960.69;;;27.17;47.12
21863;BME280;11096;51.338;12.524;2023-07-16T08:04:09;99966.03;;;27.61;46.87
21863;BME280;11096;51.338;12.524;2023-07-16T08:06:34;99969.28;;;26.94;46.07
21863;BME280;11096;51.338;12.524;2023-07-16T08:09:00;99958.00;;;30.69;41.40
21863;BME280;11096;51.338;12.524;2023-07-16T08:11:25;99950.97;;;30.05;42.18
21863;BME280;11096;51.338;12.524;2023-07-16T08:13:50;99960.75;;;29.12;45.13
21863;BME280;11096;51.338;12.524;2023-07-16T08:16:16;99972.19;;;28.17;45.17
21863;BME280;11096;51.338;12.524;2023-07-16T08:18:44;99962.91;;;29.86;41.02
21863;BME280;11096;51.338;12.524;2023-07-16T08:21:09;99984.69;;;28.35;43.61
21863;BME280;11096;51.338;12.524;2023-07-16T08:23:35;99983.88;;;28.34;43.56
21863;BME280;11096;51.338;12.524;2023-07-16T08:26:00;99984.81;;;28.40;44.16
21863;BME280;11096;51.338;12.524;2023-07-16T08:28:25;99981.47;;;27.96;43.25
21863;BME280;11096;51.338;12.524;2023-07-16T08:30:52;99980.44;;;27.97;43.96
21863;BME280;11096;51.338;12.524;2023-07-16T08:33:17;99980.41;;;27.78;43.64
21863;BME280;11096;51.338;12.524;2023-07-16T08:35:42;99981.63;;;28.50;43.07
21863;BME280;11096;51.338;12.524;2023-07-16T08:38:08;99986.28;;;27.69;42.22
21863;BME280;11096;51.338;12.524;2023-07-16T08:40:39;99994.06;;;26.70;43.34
21863;BME280;11096;51.338;12.524;2023-07-16T08:43:05;99991.44;;;26.18;46.00
21863;BME280;11096;51.338;12.524;2023-07-16T08:45:35;99990.94;;;26.41;46.65
21863;BME280;11096;51.338;12.524;2023-07-16T08:48:05;99990.31;;;29.29;40.90
21863;BME280;11096;51.338;12.524;2023-07-16T08:50:30;99988.09;;;31.77;37.67
21863;BME280;11096;51.338;12.524;2023-07-16T08:52:57;99988.31;;;35.16;32.18
21863;BME280;11096;51.338;12.524;2023-07-16T08:55:23;99975.88;;;34.63;30.14
21863;BME280;11096;51.338;12.524;2023-07-16T08:57:48;99977.50;;;34.65;31.28
21863;BME280;11096;51.338;12.524;2023-07-16T09:00:15;99970.16;;;36.07;28.01
21863;BME280;11096;51.338;12.524;2023-07-16T09:02:41;99976.53;;;37.77;26.94
21863;BME280;11096;51.338;12.524;2023-07-16T09:05:08;99954.75;;;38.26;25.46
21863;BME280;11096;51.338;12.524;2023-07-16T09:07:35;99973.06;;;38.34;25.54
21863;BME280;11096;51.338;12.524;2023-07-16T09:10:02;99961.84;;;39.75;22.89
21863;BME280;11096;51.338;12.524;2023-07-16T09:12:28;99970.72;;;39.12;22.60
21863;BME280;11096;51.338;12.524;2023-07-16T09:14:55;99986.25;;;33.03;29.12
21863;BME280;11096;51.338;12.524;2023-07-16T09:17:24;99972.75;;;35.73;26.84
21863;BME280;11096;51.338;12.524;2023-07-16T09:19:50;99982.63;;;34.66;28.42
21863;BME280;11096;51.338;12.524;2023-07-16T09:22:17;99973.13;;;32.53;29.23
21863;BME280;11096;51.338;12.524;2023-07-16T09:24:45;99978.56;;;36.00;26.70
21863;BME280;11096;51.338;12.524;2023-07-16T09:27:12;99968.47;;;39.97;23.07
21863;BME280;11096;51.338;12.524;2023-07-16T09:29:38;99961.25;;;39.78;22.18
21863;BME280;11096;51.338;12.524;2023-07-16T09:32:04;99958.41;;;40.33;21.31
21863;BME280;11096;51.338;12.524;2023-07-16T09:34:31;99967.78;;;40.05;21.16
21863;BME280;11096;51.338;12.524;2023-07-16T09:36:57;99968.88;;;39.21;21.83
21863;BME280;11096;51.338;12.524;2023-07-16T09:39:24;99973.19;;;37.37;23.30
21863;BME280;11096;51.338;12.524;2023-07-16T09:41:50;99971.72;;;40.35;21.53
21863;BME280;11096;51.338;12.524;2023-07-16T09:44:17;99968.88;;;33.79;26.42
21863;BME280;11096;51.338;12.524;2023-07-16T09:46:43;99979.72;;;36.39;24.83
21863;BME280;11096;51.338;12.524;2023-07-16T09:49:10;99968.72;;;33.48;26.42
21863;BME280;11096;51.338;12.524;2023-07-16T09:51:37;99966.66;;;34.39;26.49
21863;BME280;11096;51.338;12.524;2023-07-16T09:54:03;99964.78;;;35.06;25.15
21863;BME280;11096;51.338;12.524;2023-07-16T09:56:41;99970.25;;;38.39;21.95
21863;BME280;11096;51.338;12.524;2023-07-16T09:59:12;99976.00;;;38.56;22.29
21863;BME280;11096;51.338;12.524;2023-07-16T10:01:39;99961.38;;;40.23;19.67
21863;BME280;11096;51.338;12.524;2023-07-16T10:04:18;99970.50;;;38.94;21.84
21863;BME280;11096;51.338;12.524;2023-07-16T10:09:55;99972.13;;;42.54;18.89
21863;BME280;11096;51.338;12.524;2023-07-16T10:12:23;99972.00;;;40.78;20.16
21863;BME280;11096;51.338;12.524;2023-07-16T10:14:51;99982.91;;;40.78;19.84
21863;BME280;11096;51.338;12.524;2023-07-16T10:17:24;99973.31;;;40.59;19.14
21863;BME280;11096;51.338;12.524;2023-07-16T10:22:32;99969.81;;;39.30;19.78
21863;BME280;11096;51.338;12.524;2023-07-16T10:24:58;99976.97;;;39.95;20.17
21863;BME280;11096;51.338;12.524;2023-07-16T10:27:28;99962.16;;;39.74;19.65
21863;BME280;11096;51.338;12.524;2023-07-16T10:29:54;99969.94;;;39.80;20.33
21863;BME280;11096;51.338;12.524;2023-07-16T10:32:20;99980.41;;;41.53;19.72
21863;BME280;11096;51.338;12.524;2023-07-16T10:34:45;99975.66;;;41.05;20.13
21863;BME280;11096;51.338;12.524;2023-07-16T10:37:11;99972.97;;;39.37;20.40
21863;BME280;11096;51.338;12.524;2023-07-16T10:39:46;99973.91;;;36.16;23.24
21863;BME280;11096;51.338;12.524;2023-07-16T10:42:11;99987.56;;;37.09;23.51
21863;BME280;11096;51.338;12.524;2023-07-16T10:44:36;99987.34;;;39.93;21.60
21863;BME280;11096;51.338;12.524;2023-07-16T10:47:02;99983.22;;;39.82;21.02
21863;BME280;11096;51.338;12.524;2023-07-16T10:49:28;99984.03;;;39.82;20.71
21863;BME280;11096;51.338;12.524;2023-07-16T10:51:53;99992.53;;;41.38;19.94
21863;BME280;11096;51.338;12.524;2023-07-16T10:54:20;99986.06;;;41.26;18.96
21863;BME280;11096;51.338;12.524;2023-07-16T10:56:45;99981.63;;;39.39;20.76
21863;BME280;11096;51.338;12.524;2023-07-16T10:59:12;99969.66;;;38.42;22.21
21863;BME280;11096;51.338;12.524;2023-07-16T11:01:38;99975.94;;;37.08;22.84
21863;BME280;11096;51.338;12.524;2023-07-16T11:04:09;99976.06;;;36.93;22.43
21863;BME280;11096;51.338;12.524;2023-07-16T11:06:35;99979.38;;;37.67;22.31
21863;BME280;11096;51.338;12.524;2023-07-16T11:09:07;99982.50;;;36.68;22.49
21863;BME280;11096;51.338;12.524;2023-07-16T11:11:33;99973.56;;;36.67;22.57
21863;BME280;11096;51.338;12.524;2023-07-16T11:13:58;99967.31;;;36.32;23.96
21863;BME280;11096;51.338;12.524;2023-07-16T11:16:23;99970.34;;;34.02;25.97
21863;BME280;11096;51.338;12.524;2023-07-16T11:18:50;99960.34;;;35.61;25.03
21863;BME280;11096;51.338;12.524;2023-07-16T11:21:18;99962.31;;;36.50;24.12
21863;BME280;11096;51.338;12.524;2023-07-16T11:23:44;99959.69;;;36.40;23.43
21863;BME280;11096;51.338;12.524;2023-07-16T11:26:10;99958.78;;;36.49;22.23
21863;BME280;11096;51.338;12.524;2023-07-16T11:28:40;99960.16;;;36.02;22.07
21863;BME280;11096;51.338;12.524;2023-07-16T11:31:15;99955.44;;;36.97;22.65
21863;BME280;11096;51.338;12.524;2023-07-16T11:33:45;99961.50;;;37.66;22.01
21863;BME280;11096;51.338;12.524;2023-07-16T11:36:11;99955.72;;;38.81;21.56
21863;BME280;11096;51.338;12.524;2023-07-16T11:38:37;99949.91;;;39.35;20.73
21863;BME280;11096;51.338;12.524;2023-07-16T11:41:02;99950.66;;;38.61;20.42
21863;BME280;11096;51.338;12.524;2023-07-16T11:43:28;99945.09;;;38.85;21.06
21863;BME280;11096;51.338;12.524;2023-07-16T11:45:53;99951.47;;;39.08;20.14
21863;BME280;11096;51.338;12.524;2023-07-16T11:48:19;99950.59;;;37.71;19.79
21863;BME280;11096;51.338;12.524;2023-07-16T11:50:44;99953.25;;;37.76;20.48
21863;BME280;11096;51.338;12.524;2023-07-16T11:53:11;99950.53;;;38.85;20.36
21863;BME280;11096;51.338;12.524;2023-07-16T11:55:36;99941.81;;;38.17;21.23
21863;BME280;11096;51.338;12.524;2023-07-16T11:58:01;99947.41;;;36.52;21.66
21863;BME280;11096;51.338;12.524;2023-07-16T12:00:28;99951.94;;;38.31;21.15
21863;BME280;11096;51.338;12.524;2023-07-16T12:02:53;99937.59;;;38.11;20.13
21863;BME280;11096;51.338;12.524;2023-07-16T12:05:20;99940.38;;;36.86;21.09
21863;BME280;11096;51.338;12.524;2023-07-16T12:07:46;99943.31;;;37.67;20.54
21863;BME280;11096;51.338;12.524;2023-07-16T12:10:11;99936.50;;;36.92;19.84
21863;BME280;11096;51.338;12.524;2023-07-16T12:12:37;99951.22;;;35.47;21.19
21863;BME280;11096;51.338;12.524;2023-07-16T12:15:04;99946.50;;;36.96;19.56
21863;BME280;11096;51.338;12.524;2023-07-16T12:17:29;99941.81;;;38.55;19.56
21863;BME280;11096;51.338;12.524;2023-07-16T12:19:55;99950.66;;;39.90;18.65
21863;BME280;11096;51.338;12.524;2023-07-16T12:22:20;99946.28;;;38.27;20.32
21863;BME280;11096;51.338;12.524;2023-07-16T12:24:46;99938.31;;;39.01;19.27
21863;BME280;11096;51.338;12.524;2023-07-16T12:27:13;99936.75;;;40.28;18.33
21863;BME280;11096;51.338;12.524;2023-07-16T12:29:39;99938.28;;;39.84;18.68
21863;BME280;11096;51.338;12.524;2023-07-16T12:32:04;99941.72;;;39.21;18.38
21863;BME280;11096;51.338;12.524;2023-07-16T12:34:30;99949.47;;;38.15;19.35
21863;BME280;11096;51.338;12.524;2023-07-16T12:36:55;99944.06;;;38.81;18.70
21863;BME280;11096;51.338;12.524;2023-07-16T12:39:21;99953.28;;;35.76;20.31
21863;BME280;11096;51.338;12.524;2023-07-16T12:41:47;99939.44;;;36.32;21.75
21863;BME280;11096;51.338;12.524;2023-07-16T12:44:12;99944.47;;;35.34;21.80
21863;BME280;11096;51.338;12.524;2023-07-16T12:46:37;99944.47;;;35.39;22.62
21863;BME280;11096;51.338;12.524;2023-07-16T12:49:03;99943.53;;;37.46;21.04
21863;BME280;11096;51.338;12.524;2023-07-16T12:51:28;99954.41;;;38.27;19.83
21863;BME280;11096;51.338;12.524;2023-07-16T12:53:54;99944.19;;;36.85;20.04